createdAt,value
2023-04-21T00:01:29.642Z,23.87
2023-04-21T00:03:56.996Z,22.92
2023-04-21T00:06:24.311Z,22.22
2023-04-21T00:08:52.011Z,21.80
2023-04-21T00:11:19.365Z,21.28
2023-04-21T00:13:46.408Z,20.41
2023-04-21T00:16:14.033Z,19.67
2023-04-21T00:18:41.727Z,19.86
2023-04-21T00:21:09.312Z,19.56
2023-04-21T00:23:36.694Z,18.92
2023-04-21T00:26:03.767Z,17.91
2023-04-21T00:28:31.319Z,17.34
2023-04-21T00:30:59.115Z,17.14
2023-04-21T00:33:26.496Z,16.54
2023-04-21T00:35:57.019Z,16.55
2023-04-21T00:38:24.495Z,15.88
2023-04-21T00:40:51.881Z,15.58
2023-04-21T00:43:19.047Z,15.78
2023-04-21T00:45:47.058Z,15.39
2023-04-21T00:48:14.257Z,15.32
2023-04-21T00:50:41.905Z,14.59
2023-04-21T00:53:09.566Z,14.28
2023-04-21T00:55:36.624Z,13.89
2023-04-21T00:58:03.944Z,13.93
2023-04-21T01:00:31.758Z,13.28
2023-04-21T01:03:00.629Z,13.41
2023-04-21T01:05:27.722Z,13.28
2023-04-21T01:07:55.277Z,13.55
2023-04-21T01:10:23.857Z,13.12
2023-04-21T01:12:51.617Z,13.09
2023-04-21T01:15:19.379Z,13.26
2023-04-21T01:17:47.358Z,12.97
2023-04-21T01:20:14.544Z,12.51
2023-04-21T01:22:42.094Z,12.53
2023-04-21T01:25:09.605Z,12.11
2023-04-21T01:27:37.892Z,12.05
2023-04-21T01:30:07.179Z,12.02
2023-04-21T01:32:35.897Z,12.22
2023-04-21T01:35:03.478Z,12.00
2023-04-21T01:37:31.611Z,12.08
2023-04-21T01:40:01.043Z,11.86
2023-04-21T01:42:28.816Z,11.91
2023-04-21T01:44:58.633Z,11.52
2023-04-21T01:47:26.523Z,11.46
2023-04-21T01:49:53.564Z,10.85
2023-04-21T01:52:21.473Z,10.40
2023-04-21T01:54:49.377Z,10.48
2023-04-21T01:57:16.651Z,10.20
2023-04-21T01:59:44.552Z,10.33
2023-04-21T02:02:12.064Z,10.18
2023-04-21T02:07:06.757Z,10.37
2023-04-21T02:09:34.224Z,10.25
2023-04-21T02:12:02.076Z,10.13
2023-04-21T02:14:29.453Z,10.60
2023-04-21T02:16:57.006Z,11.12
2023-04-21T02:19:24.418Z,11.05
2023-04-21T02:21:52.095Z,11.11
2023-04-21T02:24:22.071Z,11.43
2023-04-21T02:26:49.489Z,11.65
2023-04-21T02:29:17.009Z,11.64
2023-04-21T02:31:58.939Z,12.23
2023-04-21T02:34:30.744Z,12.51
2023-04-21T02:36:59.050Z,12.74
2023-04-21T02:39:26.422Z,12.52
2023-04-21T02:41:54.060Z,12.80
2023-04-21T02:44:21.433Z,12.62
2023-04-21T02:46:48.614Z,13.58
2023-04-21T02:49:16.127Z,13.71
2023-04-21T02:51:43.504Z,13.62
2023-04-21T02:54:10.821Z,13.66
2023-04-21T02:56:38.354Z,14.14
2023-04-21T02:59:06.843Z,14.56
2023-04-21T03:01:34.066Z,14.56
2023-04-21T03:04:01.350Z,15.02
2023-04-21T03:06:28.572Z,15.37
2023-04-21T03:08:56.381Z,15.37
2023-04-21T03:11:24.270Z,14.76
2023-04-21T03:13:53.577Z,15.26
2023-04-21T03:16:21.585Z,15.41
2023-04-21T03:18:48.706Z,16.12
2023-04-21T03:21:16.292Z,15.93
2023-04-21T03:23:43.703Z,16.06
2023-04-21T03:26:11.889Z,16.00
2023-04-21T03:28:39.108Z,16.11
2023-04-21T03:31:06.383Z,15.81
2023-04-21T03:33:34.139Z,15.77
2023-04-21T03:36:01.631Z,16.49
2023-04-21T03:38:30.962Z,16.50
2023-04-21T03:40:58.326Z,16.56
2023-04-21T03:43:25.594Z,16.65
2023-04-21T03:45:53.029Z,16.91
2023-04-21T03:48:20.416Z,17.24
2023-04-21T03:50:47.506Z,16.83
2023-04-21T03:53:14.909Z,16.64
2023-04-21T03:55:41.971Z,16.87
2023-04-21T03:58:09.384Z,17.26
2023-04-21T04:00:36.922Z,16.55
2023-04-21T04:03:04.400Z,16.59
2023-04-21T04:05:31.801Z,16.48
2023-04-21T04:07:59.370Z,16.50
2023-04-21T04:10:26.375Z,15.89
2023-04-21T04:12:55.051Z,15.71
2023-04-21T04:15:22.090Z,16.05
2023-04-21T04:17:50.119Z,15.91
2023-04-21T04:20:17.800Z,15.16
2023-04-21T04:22:45.295Z,15.77
2023-04-21T04:25:14.628Z,15.85
2023-04-21T04:27:41.733Z,16.12
2023-04-21T04:30:09.278Z,15.95
2023-04-21T04:32:39.344Z,15.72
2023-04-21T04:35:07.044Z,16.10
2023-04-21T04:37:36.540Z,15.59
2023-04-21T04:40:06.338Z,16.29
2023-04-21T04:42:34.437Z,16.15
2023-04-21T04:45:01.800Z,15.81
2023-04-21T04:47:29.468Z,16.25
2023-04-21T04:49:56.556Z,15.77
2023-04-21T04:52:24.157Z,15.31
2023-04-21T04:54:51.546Z,15.73
2023-04-21T04:57:19.108Z,15.48
2023-04-21T04:59:47.043Z,15.21
2023-04-21T05:02:14.222Z,15.03
2023-04-21T05:04:41.521Z,14.70
2023-04-21T05:07:08.855Z,15.08
2023-04-21T05:09:36.349Z,15.02
2023-04-21T05:12:03.823Z,14.63
2023-04-21T05:14:31.234Z,14.85
2023-04-21T05:16:58.662Z,14.71
2023-04-21T05:19:26.072Z,14.33
2023-04-21T05:21:53.963Z,14.22
2023-04-21T05:24:24.105Z,14.57
2023-04-21T05:26:51.236Z,15.27
2023-04-21T05:29:18.658Z,15.06
2023-04-21T05:31:46.448Z,15.41
2023-04-21T05:34:13.699Z,14.66
2023-04-21T05:36:43.790Z,14.74
2023-04-21T05:39:11.242Z,14.61
2023-04-21T05:41:38.430Z,15.38
2023-04-21T05:44:05.987Z,15.30
2023-04-21T05:46:34.510Z,15.26
2023-04-21T05:49:04.695Z,15.56
2023-04-21T05:51:32.386Z,16.01
2023-04-21T05:53:59.892Z,15.67
2023-04-21T05:56:27.413Z,15.96
2023-04-21T05:58:54.858Z,15.98
2023-04-21T06:01:22.307Z,16.50
2023-04-21T06:03:50.366Z,15.71
2023-04-21T06:06:17.903Z,16.16
2023-04-21T06:08:45.707Z,16.03
2023-04-21T06:11:16.032Z,16.47
2023-04-21T06:13:43.759Z,15.99
2023-04-21T06:16:11.149Z,16.45
2023-04-21T06:18:38.473Z,16.44
2023-04-21T06:21:05.770Z,15.69
2023-04-21T06:23:32.956Z,15.85
2023-04-21T06:26:05.519Z,15.84
2023-04-21T06:28:33.748Z,15.73
2023-04-21T06:31:01.574Z,16.12
2023-04-21T06:33:29.472Z,15.24
2023-04-21T06:35:56.646Z,15.55
2023-04-21T06:38:23.754Z,15.87
2023-04-21T06:40:51.047Z,16.47
2023-04-21T06:43:18.200Z,16.10
2023-04-21T06:45:45.592Z,15.73
2023-04-21T06:48:13.212Z,16.17
2023-04-21T06:50:40.802Z,16.58
2023-04-21T06:53:09.608Z,16.86
2023-04-21T06:55:36.697Z,16.69
2023-04-21T06:58:04.337Z,17.04
2023-04-21T07:00:31.393Z,17.11
2023-04-21T07:02:58.881Z,17.04
2023-04-21T07:05:26.123Z,16.73
2023-04-21T07:07:55.684Z,17.15
2023-04-21T07:10:23.633Z,16.29
2023-04-21T07:12:50.696Z,16.65
2023-04-21T07:15:17.938Z,16.68
2023-04-21T07:17:45.111Z,16.26
2023-04-21T07:20:12.877Z,17.10
2023-04-21T07:22:40.478Z,16.87
2023-04-21T07:25:08.207Z,17.20
2023-04-21T07:27:38.613Z,16.67
2023-04-21T07:30:06.736Z,16.50
2023-04-21T07:32:34.515Z,16.53
2023-04-21T07:35:02.413Z,17.32
2023-04-21T07:37:29.650Z,17.08
2023-04-21T07:39:56.855Z,17.38
2023-04-21T07:42:24.134Z,17.24
2023-04-21T07:44:51.379Z,17.12
2023-04-21T07:47:18.718Z,17.85
2023-04-21T07:49:45.975Z,17.76
2023-04-21T07:52:13.183Z,17.77
2023-04-21T07:54:40.255Z,17.12
2023-04-21T07:57:08.000Z,17.83
2023-04-21T07:59:35.526Z,17.94
2023-04-21T08:02:02.967Z,17.06
2023-04-21T08:04:30.873Z,16.78
2023-04-21T08:06:59.120Z,16.78
2023-04-21T08:09:26.969Z,16.80
2023-04-21T08:11:55.302Z,16.75
2023-04-21T08:14:22.547Z,16.78
2023-04-21T08:16:49.962Z,17.27
2023-04-21T08:19:17.604Z,16.77
2023-04-21T08:21:44.807Z,17.18
2023-04-21T08:24:12.575Z,17.53
2023-04-21T08:26:40.108Z,17.43
2023-04-21T08:29:09.885Z,17.73
2023-04-21T08:31:37.195Z,17.39
2023-04-21T08:34:04.680Z,17.48
2023-04-21T08:36:32.023Z,16.85
2023-04-21T08:38:59.612Z,16.67
2023-04-21T08:41:26.914Z,16.11
2023-04-21T08:43:54.031Z,16.79
2023-04-21T08:46:21.401Z,17.08
2023-04-21T08:48:48.581Z,17.58
2023-04-21T08:51:21.461Z,17.87
2023-04-21T08:53:48.833Z,17.67
2023-04-21T08:56:16.166Z,18.11
2023-04-21T08:58:44.019Z,18.80
2023-04-21T09:01:11.863Z,18.51
2023-04-21T09:03:39.517Z,19.25
2023-04-21T09:06:08.716Z,19.14
2023-04-21T09:08:39.537Z,20.11
2023-04-21T09:11:07.223Z,23.30
2023-04-21T09:13:35.526Z,24.97
2023-04-21T09:16:18.175Z,26.04
2023-04-21T09:18:46.032Z,27.17
2023-04-21T09:21:17.573Z,27.54
2023-04-21T09:23:44.651Z,28.97
2023-04-21T09:26:12.072Z,29.41
2023-04-21T09:28:46.884Z,31.07
2023-04-21T09:31:19.749Z,32.89
2023-04-21T09:33:57.928Z,33.14
2023-04-21T09:36:28.487Z,33.94
2023-04-21T09:39:20.597Z,34.34
2023-04-21T09:41:44.759Z,34.85
2023-04-21T09:44:12.285Z,35.56
2023-04-21T09:46:39.469Z,37.28
2023-04-21T09:49:07.098Z,37.94
2023-04-21T09:51:55.556Z,38.26
2023-04-21T09:56:53.863Z,40.13
2023-04-21T09:59:24.816Z,40.33
2023-04-21T10:01:52.550Z,41.04
2023-04-21T10:04:20.461Z,41.99
2023-04-21T10:06:48.610Z,42.11
2023-04-21T10:09:16.402Z,42.44
2023-04-21T10:11:44.206Z,42.86
2023-04-21T10:14:11.577Z,42.13
2023-04-21T10:16:39.073Z,41.75
2023-04-21T10:19:26.113Z,41.05
2023-04-21T10:21:56.972Z,40.20
2023-04-21T10:24:24.080Z,39.92
2023-04-21T10:26:54.062Z,39.19
2023-04-21T10:29:56.156Z,39.58
2023-04-21T10:32:43.355Z,39.46
2023-04-21T10:35:11.924Z,38.49
2023-04-21T10:37:41.130Z,38.08
2023-04-21T10:40:43.205Z,38.33
2023-04-21T10:43:47.210Z,38.37
2023-04-21T10:46:35.789Z,38.63
2023-04-21T10:49:10.349Z,38.84
2023-04-21T10:51:59.649Z,39.38
2023-04-21T10:54:27.716Z,39.74
2023-04-21T10:56:55.728Z,40.08
2023-04-21T10:59:23.961Z,39.45
2023-04-21T11:01:51.415Z,39.29
2023-04-21T11:04:20.488Z,40.34
2023-04-21T11:07:16.737Z,41.62
2023-04-21T11:09:45.785Z,41.47
2023-04-21T11:12:15.477Z,42.04
2023-04-21T11:14:43.769Z,42.25
2023-04-21T11:17:12.216Z,42.82
2023-04-21T11:19:39.576Z,42.51
2023-04-21T11:22:10.056Z,42.71
2023-04-21T11:24:37.709Z,42.01
2023-04-21T11:27:08.471Z,42.38
2023-04-21T11:29:36.195Z,43.19
2023-04-21T11:32:08.282Z,42.12
2023-04-21T11:34:39.253Z,40.07
2023-04-21T11:37:16.543Z,39.41
2023-04-21T11:39:44.377Z,39.43
2023-04-21T11:42:11.836Z,38.85
2023-04-21T11:44:43.116Z,38.51
2023-04-21T11:47:17.831Z,39.95
2023-04-21T11:50:04.205Z,41.13
2023-04-21T11:52:33.368Z,40.74
2023-04-21T11:55:05.376Z,41.55
2023-04-21T11:57:33.273Z,41.27
2023-04-21T12:00:01.960Z,41.55
2023-04-21T12:02:33.475Z,41.50
2023-04-21T12:05:02.219Z,41.79
2023-04-21T12:07:33.976Z,42.04
2023-04-21T12:10:02.479Z,41.75
2023-04-21T12:12:29.704Z,41.62
2023-04-21T12:14:57.051Z,41.20
2023-04-21T12:17:24.479Z,41.27
2023-04-21T12:19:51.661Z,41.04
2023-04-21T12:22:19.000Z,40.43
2023-04-21T12:24:46.521Z,40.61
2023-04-21T12:27:13.976Z,40.99
2023-04-21T12:29:44.116Z,40.95
2023-04-21T12:32:11.736Z,41.03
2023-04-21T12:34:39.118Z,40.69
2023-04-21T12:37:07.419Z,40.40
2023-04-21T12:39:34.922Z,40.32
2023-04-21T12:42:02.246Z,41.03
2023-04-21T12:44:29.809Z,41.11
2023-04-21T12:46:57.358Z,41.19
2023-04-21T12:49:25.470Z,41.98
2023-04-21T12:51:52.897Z,41.97
2023-04-21T12:54:20.290Z,41.64
2023-04-21T12:56:49.846Z,41.52
2023-04-21T12:59:16.898Z,42.05
2023-04-21T13:01:44.142Z,42.18
2023-04-21T13:04:11.546Z,42.30
2023-04-21T13:06:39.503Z,42.50
2023-04-21T13:09:09.262Z,42.27
2023-04-21T13:11:36.374Z,42.53
2023-04-21T13:14:06.519Z,42.79
2023-04-21T13:16:33.733Z,42.92
2023-04-21T13:19:01.146Z,43.08
2023-04-21T13:21:28.301Z,43.25
2023-04-21T13:23:57.414Z,43.55
2023-04-21T13:26:24.639Z,44.08
2023-04-21T13:28:52.077Z,44.29
2023-04-21T13:31:19.477Z,44.22
2023-04-21T13:33:46.807Z,44.13
2023-04-21T13:36:14.218Z,44.91
2023-04-21T13:38:41.838Z,44.76
2023-04-21T13:41:09.321Z,45.10
2023-04-21T13:43:36.695Z,45.03
2023-04-21T13:46:03.771Z,45.54
2023-04-21T13:48:31.302Z,45.79
2023-04-21T13:50:58.640Z,46.06
2023-04-21T13:53:26.648Z,46.18
2023-04-21T13:55:56.648Z,46.69
2023-04-21T13:58:23.986Z,46.79
2023-04-21T14:00:51.367Z,47.34
2023-04-21T14:03:19.064Z,47.57
2023-04-21T14:05:46.886Z,47.91
2023-04-21T14:08:14.201Z,48.69
2023-04-21T14:10:41.536Z,48.68
2023-04-21T14:13:12.826Z,48.68
2023-04-21T14:15:44.921Z,48.96
2023-04-21T14:18:13.319Z,48.68
2023-04-21T14:20:40.833Z,48.73
2023-04-21T14:23:08.147Z,49.20
2023-04-21T14:25:35.681Z,49.34
2023-04-21T14:28:06.992Z,49.22
2023-04-21T14:30:38.908Z,49.55
2023-04-21T14:33:06.412Z,49.42
2023-04-21T14:35:33.553Z,49.30
2023-04-21T14:38:01.076Z,49.64
2023-04-21T14:40:28.268Z,49.22
2023-04-21T14:42:57.768Z,49.05
2023-04-21T14:45:25.537Z,49.12
2023-04-21T14:47:53.449Z,49.05
2023-04-21T14:50:22.408Z,49.23
2023-04-21T14:52:49.873Z,49.61
2023-04-21T14:55:18.569Z,49.89
2023-04-21T14:57:47.028Z,50.26
2023-04-21T15:00:14.737Z,50.69
2023-04-21T15:02:42.287Z,50.95
2023-04-21T15:05:09.721Z,51.20
2023-04-21T15:07:37.104Z,51.65
2023-04-21T15:10:04.720Z,51.41
2023-04-21T15:12:32.697Z,51.44
2023-04-21T15:15:01.029Z,51.59
2023-04-21T15:17:28.468Z,51.95
2023-04-21T15:19:56.170Z,51.70
2023-04-21T15:22:23.503Z,51.91
2023-04-21T15:24:53.131Z,52.02
2023-04-21T15:27:21.709Z,51.83
2023-04-21T15:29:49.341Z,52.21
2023-04-21T15:32:16.291Z,52.36
2023-04-21T15:34:43.491Z,52.22
2023-04-21T15:37:14.218Z,52.20
2023-04-21T15:39:41.417Z,52.46
2023-04-21T15:42:09.280Z,52.66
2023-04-21T15:44:38.796Z,52.52
2023-04-21T15:47:06.652Z,52.49
2023-04-21T15:49:34.471Z,53.36
2023-04-21T15:52:03.635Z,53.64
2023-04-21T15:54:34.028Z,53.62
2023-04-21T15:57:05.120Z,53.73
2023-04-21T15:59:34.735Z,53.80
2023-04-21T16:02:02.419Z,54.00
2023-04-21T16:04:29.816Z,53.94
2023-04-21T16:06:57.231Z,53.61
2023-04-21T16:09:24.322Z,54.05
2023-04-21T16:11:51.853Z,54.36
2023-04-21T16:14:19.019Z,54.25
2023-04-21T16:16:46.719Z,54.31
2023-04-21T16:19:17.175Z,54.01
2023-04-21T16:21:44.373Z,54.06
2023-04-21T16:24:11.985Z,53.90
2023-04-21T16:26:39.216Z,54.08
2023-04-21T16:29:07.088Z,53.91
2023-04-21T16:31:34.530Z,53.90
2023-04-21T16:34:01.675Z,54.68
2023-04-21T16:36:30.806Z,54.97
2023-04-21T16:38:58.374Z,55.21
2023-04-21T16:41:25.941Z,54.56
2023-04-21T16:43:53.194Z,54.69
2023-04-21T16:46:20.847Z,55.08
2023-04-21T16:48:48.435Z,55.07
2023-04-21T16:51:15.502Z,55.03
2023-04-21T16:53:42.763Z,54.96
2023-04-21T16:56:10.098Z,54.98
2023-04-21T16:58:37.496Z,55.03
2023-04-21T17:01:07.114Z,54.86
2023-04-21T17:03:35.126Z,54.54
2023-04-21T17:06:09.227Z,54.74
2023-04-21T17:08:37.344Z,55.15
2023-04-21T17:11:04.990Z,54.69
2023-04-21T17:13:34.235Z,54.39
2023-04-21T17:16:01.602Z,55.01
2023-04-21T17:18:29.272Z,55.03
2023-04-21T17:20:56.705Z,54.74
2023-04-21T17:23:23.747Z,55.02
2023-04-21T17:25:51.525Z,54.73
2023-04-21T17:28:18.722Z,54.95
2023-04-21T17:30:46.795Z,54.78
2023-04-21T17:33:17.334Z,55.07
2023-04-21T17:35:59.920Z,54.83
2023-04-21T17:38:30.194Z,54.88
2023-04-21T17:40:57.241Z,54.97
2023-04-21T17:43:24.601Z,55.14
2023-04-21T17:45:52.159Z,54.77
2023-04-21T17:48:22.224Z,54.83
2023-04-21T17:50:49.432Z,55.23
2023-04-21T17:53:17.461Z,55.07
2023-04-21T17:55:45.328Z,54.92
2023-04-21T17:58:12.784Z,54.71
2023-04-21T18:00:40.533Z,55.07
2023-04-21T18:03:08.278Z,54.58
2023-04-21T18:05:35.428Z,55.12
2023-04-21T18:08:03.013Z,55.10
2023-04-21T18:10:30.248Z,54.93
2023-04-21T18:12:58.073Z,54.90
2023-04-21T18:15:25.440Z,55.32
2023-04-21T18:17:53.289Z,55.12
2023-04-21T18:20:20.810Z,55.57
2023-04-21T18:22:49.651Z,55.30
2023-04-21T18:25:27.301Z,54.86
2023-04-21T18:28:05.574Z,55.26
2023-04-21T18:30:33.145Z,55.46
2023-04-21T18:33:00.609Z,55.72
2023-04-21T18:35:28.177Z,55.60
2023-04-21T18:37:55.310Z,55.49
2023-04-21T18:40:22.635Z,55.88
2023-04-21T18:42:49.632Z,55.86
2023-04-21T18:45:17.091Z,56.49
2023-04-21T18:47:45.603Z,56.04
2023-04-21T18:50:13.495Z,56.04
2023-04-21T18:52:40.492Z,56.60
2023-04-21T18:55:08.743Z,56.29
2023-04-21T18:57:36.514Z,56.38
2023-04-21T19:00:06.629Z,56.19
2023-04-21T19:02:36.534Z,56.13
2023-04-21T19:05:04.898Z,56.34
2023-04-21T19:07:31.946Z,56.11
2023-04-21T19:09:59.338Z,56.51
2023-04-21T19:12:29.810Z,56.25
2023-04-21T19:14:57.121Z,56.08
2023-04-21T19:17:24.634Z,56.16
2023-04-21T19:19:51.725Z,56.15
2023-04-21T19:22:19.959Z,55.98
2023-04-21T19:24:47.338Z,56.30
2023-04-21T19:27:14.765Z,56.02
2023-04-21T19:29:42.647Z,56.78
2023-04-21T19:32:09.821Z,56.83
2023-04-21T19:34:37.383Z,56.67
2023-04-21T19:37:04.964Z,57.08
2023-04-21T19:39:32.564Z,56.88
2023-04-21T19:42:00.709Z,57.37
2023-04-21T19:44:28.156Z,56.95
2023-04-21T19:46:55.298Z,57.27
2023-04-21T19:49:24.737Z,57.25
2023-04-21T19:51:51.953Z,57.55
2023-04-21T19:54:19.280Z,57.57
2023-04-21T19:56:46.857Z,57.76
2023-04-21T19:59:14.261Z,57.72
2023-04-21T20:01:41.621Z,57.77
2023-04-21T20:04:11.894Z,57.71
2023-04-21T20:06:39.996Z,57.70
2023-04-21T20:09:07.799Z,57.72
2023-04-21T20:11:35.530Z,57.83
2023-04-21T20:14:03.187Z,57.71
2023-04-21T20:16:31.497Z,57.52
2023-04-21T20:18:59.060Z,57.87
2023-04-21T20:21:27.231Z,57.49
2023-04-21T20:23:54.600Z,57.29
2023-04-21T20:26:22.199Z,57.46
2023-04-21T20:28:49.555Z,57.47
2023-04-21T20:31:18.679Z,57.24
2023-04-21T20:33:46.076Z,57.53
2023-04-21T20:36:13.203Z,57.43
2023-04-21T20:38:41.661Z,57.33
2023-04-21T20:41:09.482Z,57.32
2023-04-21T20:43:36.507Z,57.87
2023-04-21T20:46:04.205Z,57.17
2023-04-21T20:48:31.286Z,57.24
2023-04-21T20:50:58.644Z,57.32
2023-04-21T20:53:26.802Z,57.67
2023-04-21T20:55:53.857Z,57.25
2023-04-21T20:58:24.662Z,57.91
2023-04-21T21:00:51.946Z,57.43
2023-04-21T21:03:19.847Z,57.36
2023-04-21T21:05:47.410Z,57.19
2023-04-21T21:08:19.553Z,57.47
2023-04-21T21:10:46.907Z,57.46
2023-04-21T21:13:14.155Z,57.26
2023-04-21T21:15:41.739Z,57.29
2023-04-21T21:18:09.120Z,57.03
2023-04-21T21:20:36.606Z,57.03
2023-04-21T21:23:03.932Z,56.71
2023-04-21T21:25:31.515Z,57.09
2023-04-21T21:28:02.147Z,56.75
2023-04-21T21:30:29.305Z,57.17
2023-04-21T21:32:56.802Z,56.97
2023-04-21T21:35:23.931Z,57.08
2023-04-21T21:37:51.225Z,56.92
2023-04-21T21:40:18.562Z,56.75
2023-04-21T21:42:46.291Z,56.77
2023-04-21T21:45:13.414Z,56.29
2023-04-21T21:47:43.159Z,56.48
2023-04-21T21:50:13.136Z,56.67
2023-04-21T21:52:40.875Z,56.65
2023-04-21T21:55:08.631Z,56.37
2023-04-21T21:57:36.727Z,56.10
2023-04-21T22:00:08.477Z,56.64
2023-04-21T22:02:35.884Z,56.57
2023-04-21T22:05:05.817Z,56.48
2023-04-21T22:07:32.918Z,56.41
2023-04-21T22:10:00.294Z,56.73
2023-04-21T22:12:27.422Z,56.50
2023-04-21T22:14:57.258Z,56.58
2023-04-21T22:17:25.127Z,56.74
2023-04-21T22:19:53.499Z,56.70
2023-04-21T22:22:20.685Z,56.43
2023-04-21T22:24:50.414Z,56.66
2023-04-21T22:27:17.810Z,56.43
2023-04-21T22:29:44.748Z,56.84
2023-04-21T22:32:12.168Z,56.80
2023-04-21T22:34:39.207Z,57.18
2023-04-21T22:37:06.571Z,57.44
2023-04-21T22:39:34.089Z,56.82
2023-04-21T22:42:02.278Z,57.46
2023-04-21T22:44:29.951Z,56.88
2023-04-21T22:46:57.256Z,56.84
2023-04-21T22:49:24.705Z,57.05
2023-04-21T22:51:52.130Z,56.68
2023-04-21T22:54:19.057Z,56.71
2023-04-21T22:56:46.296Z,56.80
2023-04-21T22:59:13.363Z,56.60
2023-04-21T23:01:40.719Z,56.11
2023-04-21T23:04:08.626Z,56.12
2023-04-21T23:06:35.782Z,56.08
2023-04-21T23:09:03.836Z,55.60
2023-04-21T23:11:31.522Z,55.74
2023-04-21T23:13:59.255Z,55.21
2023-04-21T23:16:26.510Z,55.12
2023-04-21T23:18:54.012Z,54.05
2023-04-21T23:21:21.410Z,51.85
2023-04-21T23:23:49.195Z,50.06
2023-04-21T23:26:16.772Z,47.43
2023-04-21T23:28:43.861Z,44.86
2023-04-21T23:31:11.248Z,42.71
2023-04-21T23:33:38.581Z,40.78
2023-04-21T23:36:06.329Z,38.69
2023-04-21T23:38:33.409Z,36.35
2023-04-21T23:41:00.822Z,34.78
2023-04-21T23:43:28.710Z,32.38
2023-04-21T23:45:55.737Z,30.97
2023-04-21T23:48:23.145Z,29.73
2023-04-21T23:50:50.389Z,28.46
2023-04-21T23:53:17.770Z,27.78
2023-04-21T23:55:45.850Z,28.16
2023-04-21T23:58:13.510Z,27.53
